首页
METAR-TAF:

METAR-TAF

机场 :

Kinston Regional Jetport at Stallings Field

金斯顿, 北卡罗来纳州, 美国

纬度: 35-20N, 经度: 077-37W, 海拔: 29米

当前天气观测

该预报发布于1小时和3分钟前的17:56 UTC
风速3节,风向
温度 16°C
湿度 63%
气压 1022 hPa
能見度: 16.1公里
散云层高于3400英尺

METAR: KISO 181756Z 36003KT 10SM SCT034 16/09 A3017

时间: 13:59 (18:59 UTC)

预报

该预报发布于1小时和38分钟前的17:21 UTC
预报有效从18日的 18点(UTC)到 19日的 18点(UTC)
风速5节,风向西
能見度: 10公里
多云层高于4000英尺
从 19日的 0300点(UTC)
风速8节,风向西南
能見度: 9.7公里
阴天层高于1500英尺
轻雾
从 19日的 0600点(UTC)
风速8节,风向西南
能見度: 8.0公里
阴天层高于400英尺
小阵雨
从 19日的 1200点(UTC)
风速11节,风向
能見度: 9.7公里
阴天层高于700英尺
小雨
从 19日的 1600点(UTC)
风速12节,风向北转东北,有时为21节阵风
能見度: 9.7公里
阴天层高于3000英尺
小雨

TAF: KISO 181721Z 1818/1918 26005KT P6SM BKN040 FM190300 22008KT 6SM BR OVC015 FM190600 23008KT 5SM -SHRA OVC004 FM191200 01011KT 6SM -RA OVC007 FM191600 03012G21KT 6SM -RA OVC030 AMD LTD TO CLD VIS AND WIND

超过4000个机场的气象观测和天气预报(METAR&TAF报告)。

可查询的气象台以黄色和红色小点在地图上表示。

将鼠标移到小点上方,可查看气象台名称。

然后点击查看天气观测和预报。

如需切换地图:点击带黑十字的绿色按钮放大地图;点击带横线的绿色按钮缩小地图;或者点击绿色箭头查看邻近地区的地图。


METAR-TAF: